createdAt,value
2017-07-15T15:00:53.998Z,25.69
2017-07-15T15:01:34.540Z,25.76
2017-07-15T15:02:15.080Z,25.79
2017-07-15T15:02:55.625Z,25.79
2017-07-15T15:03:36.134Z,25.75
2017-07-15T15:04:16.655Z,25.77
2017-07-15T15:04:57.172Z,25.79
2017-07-15T15:05:37.675Z,25.76
2017-07-15T15:06:18.212Z,25.88
2017-07-15T15:06:58.700Z,25.9
2017-07-15T15:07:39.455Z,25.91
2017-07-15T15:08:20.001Z,25.88
2017-07-15T15:09:00.542Z,25.77
2017-07-15T15:09:41.026Z,25.7
2017-07-15T15:10:21.529Z,25.82
2017-07-15T15:11:02.032Z,25.8
2017-07-15T15:11:42.573Z,25.75
2017-07-15T15:12:23.056Z,25.77
2017-07-15T15:13:03.594Z,25.77
2017-07-15T15:13:44.126Z,25.75
2017-07-15T15:14:24.652Z,25.8
2017-07-15T15:15:05.180Z,25.76
2017-07-15T15:15:45.701Z,25.52
2017-07-15T15:16:26.221Z,25.46
2017-07-15T15:17:06.695Z,25.55
2017-07-15T15:17:47.253Z,25.62
2017-07-15T15:18:27.794Z,25.62
2017-07-15T15:19:08.288Z,25.5
2017-07-15T15:19:48.823Z,25.51
2017-07-15T15:20:29.317Z,25.65
2017-07-15T15:21:10.362Z,25.69
2017-07-15T15:21:50.385Z,25.88
2017-07-15T15:22:30.939Z,25.88
2017-07-15T15:23:11.453Z,25.91
2017-07-15T15:23:51.970Z,25.95
2017-07-15T15:24:32.453Z,26.01
2017-07-15T15:25:13.197Z,26.05
2017-07-15T15:25:53.698Z,26.12
2017-07-15T15:26:34.538Z,26.15
2017-07-15T15:27:15.009Z,26.09
2017-07-15T15:27:55.535Z,26.18
2017-07-15T15:28:36.056Z,26.01
2017-07-15T15:29:16.540Z,26.02
2017-07-15T15:29:57.037Z,26.1
2017-07-15T15:30:38.579Z,26.06
2017-07-15T15:31:19.060Z,25.9
2017-07-15T15:31:59.533Z,26.02
2017-07-15T15:32:40.032Z,26.05
2017-07-15T15:33:20.541Z,25.99
2017-07-15T15:34:01.071Z,26.15
2017-07-15T15:34:41.574Z,26.13
2017-07-15T15:35:22.058Z,26.29
2017-07-15T15:36:02.638Z,26.21
2017-07-15T15:36:43.325Z,26.18
2017-07-15T15:37:24.016Z,26.2
2017-07-15T15:38:04.481Z,26.18
2017-07-15T15:38:44.990Z,26.1
2017-07-15T15:39:25.503Z,26.2
2017-07-15T15:40:06.025Z,26.06
2017-07-15T15:40:46.574Z,26.32
2017-07-15T15:41:27.240Z,26.13
2017-07-15T15:42:07.875Z,26.21
2017-07-15T15:42:48.381Z,26.17
2017-07-15T15:43:28.872Z,26.09
2017-07-15T15:44:09.423Z,26.12
2017-07-15T15:44:49.907Z,26.05
2017-07-15T15:45:30.441Z,26.09
2017-07-15T15:46:10.936Z,26.09
2017-07-15T15:46:52.942Z,26.06
2017-07-15T15:47:33.504Z,26.17
2017-07-15T15:48:13.974Z,26.26
2017-07-15T15:48:54.570Z,26.12
2017-07-15T15:49:35.050Z,26.26
2017-07-15T15:50:15.555Z,26.09
2017-07-15T15:50:56.036Z,26.07
2017-07-15T15:51:36.776Z,26.28
2017-07-15T15:52:17.406Z,26.2
2017-07-15T15:52:57.967Z,26.17
2017-07-15T15:53:38.474Z,26.15
2017-07-15T15:54:19.359Z,26.05
2017-07-15T15:54:59.661Z,25.99
2017-07-15T15:55:40.162Z,26.01
2017-07-15T15:56:20.662Z,25.91
2017-07-15T15:57:02.314Z,25.8
2017-07-15T15:57:43.337Z,25.8
2017-07-15T15:58:24.620Z,25.79
2017-07-15T15:59:05.255Z,25.88
2017-07-15T15:59:45.727Z,25.8
2017-07-15T16:00:26.736Z,25.77
2017-07-15T16:01:07.158Z,25.77
2017-07-15T16:01:47.675Z,25.77
2017-07-15T16:02:28.205Z,25.64
2017-07-15T16:03:08.722Z,25.73
2017-07-15T16:03:49.270Z,25.77
2017-07-15T16:04:29.786Z,25.75
2017-07-15T16:05:10.333Z,25.79
2017-07-15T16:05:50.848Z,25.83
2017-07-15T16:06:31.381Z,25.76
2017-07-15T16:07:11.892Z,25.7
2017-07-15T16:07:52.408Z,25.77
2017-07-15T16:08:32.958Z,25.77
2017-07-15T16:09:13.469Z,25.76
2017-07-15T16:09:53.989Z,25.73
2017-07-15T16:10:34.501Z,25.7
2017-07-15T16:11:14.995Z,25.7
2017-07-15T16:11:55.500Z,25.73
2017-07-15T16:12:36.017Z,25.67
2017-07-15T16:13:16.529Z,25.67
2017-07-15T16:13:57.076Z,25.62
2017-07-15T16:14:37.566Z,25.58
2017-07-15T16:15:18.863Z,25.52
2017-07-15T16:16:00.175Z,25.64
2017-07-15T16:16:40.668Z,25.64
2017-07-15T16:17:21.645Z,25.6
2017-07-15T16:18:02.139Z,25.52
2017-07-15T16:18:42.682Z,25.58
2017-07-15T16:19:23.210Z,25.46
2017-07-15T16:20:03.722Z,25.43
2017-07-15T16:20:44.222Z,25.4
2017-07-15T16:21:24.730Z,25.45
2017-07-15T16:22:05.356Z,25.39
2017-07-15T16:22:45.855Z,25.43
2017-07-15T16:23:26.378Z,25.42
2017-07-15T16:24:06.854Z,25.42
2017-07-15T16:24:47.397Z,25.45
2017-07-15T16:25:27.921Z,25.36
2017-07-15T16:26:08.464Z,25.39
2017-07-15T16:26:48.982Z,25.36
2017-07-15T16:27:29.494Z,25.38
2017-07-15T16:28:10.007Z,25.45
2017-07-15T16:28:50.512Z,25.33
2017-07-15T16:29:31.048Z,25.4
2017-07-15T16:30:11.598Z,25.42
2017-07-15T16:30:52.131Z,25.3
2017-07-15T16:31:32.691Z,25.39
2017-07-15T16:32:13.165Z,25.43
2017-07-15T16:32:53.692Z,25.42
2017-07-15T16:33:34.200Z,25.4
2017-07-15T16:34:14.730Z,25.5
2017-07-15T16:34:55.398Z,25.47
2017-07-15T16:35:36.002Z,25.4
2017-07-15T16:36:17.451Z,25.35
2017-07-15T16:36:57.955Z,25.32
2017-07-15T16:37:38.554Z,25.33
2017-07-15T16:38:19.103Z,25.21
2017-07-15T16:38:59.605Z,25.4
2017-07-15T16:39:40.132Z,25.32
2017-07-15T16:40:20.682Z,25.33
2017-07-15T16:41:01.290Z,25.42
2017-07-15T16:41:41.774Z,25.4
2017-07-15T16:42:22.311Z,25.43
2017-07-15T16:43:02.826Z,25.45
2017-07-15T16:43:43.366Z,25.57
2017-07-15T16:44:23.832Z,25.51
2017-07-15T16:45:04.344Z,25.57
2017-07-15T16:45:44.866Z,25.58
2017-07-15T16:46:25.544Z,25.55
2017-07-15T16:47:05.912Z,25.51
2017-07-15T16:47:46.414Z,25.51
2017-07-15T16:48:26.959Z,25.51
2017-07-15T16:49:07.467Z,25.57
2017-07-15T16:49:47.976Z,25.5
2017-07-15T16:50:28.474Z,25.5
2017-07-15T16:51:09.155Z,25.46
2017-07-15T16:51:49.513Z,25.38
2017-07-15T16:52:30.028Z,25.36
2017-07-15T16:53:10.734Z,25.32
2017-07-15T16:53:51.250Z,25.3
2017-07-15T16:54:31.804Z,25.4
2017-07-15T16:55:12.328Z,25.42
2017-07-15T16:55:52.820Z,25.35
2017-07-15T16:56:33.284Z,25.33
2017-07-15T16:57:13.829Z,25.28
2017-07-15T16:57:54.318Z,25.18
2017-07-15T16:58:34.791Z,25.21
2017-07-15T16:59:15.332Z,25.14
2017-07-15T16:59:55.888Z,25.09
2017-07-15T17:00:36.448Z,25.1
2017-07-15T17:01:16.882Z,25.21
2017-07-15T17:01:57.369Z,25.2
2017-07-15T17:02:37.895Z,25.15
2017-07-15T17:03:18.419Z,25.21
2017-07-15T17:03:58.886Z,25.21
2017-07-15T17:04:39.408Z,25.21
2017-07-15T17:05:19.905Z,25.18
2017-07-15T17:06:00.423Z,25.21
2017-07-15T17:06:40.993Z,25.2
2017-07-15T17:07:21.480Z,25.21
2017-07-15T17:08:01.989Z,25.3
2017-07-15T17:08:42.494Z,25.15
2017-07-15T17:09:23.034Z,25.24
2017-07-15T17:10:03.530Z,25.14
2017-07-15T17:10:44.052Z,25.18
2017-07-15T17:11:24.562Z,25.17
2017-07-15T17:12:05.063Z,25.21
2017-07-15T17:12:45.557Z,25.2
2017-07-15T17:13:27.958Z,25.25
2017-07-15T17:14:08.480Z,25.25
2017-07-15T17:14:49.161Z,25.14
2017-07-15T17:15:29.602Z,25.08
2017-07-15T17:16:10.087Z,25.09
2017-07-15T17:16:50.606Z,25.14
2017-07-15T17:17:31.102Z,25.02
2017-07-15T17:18:11.782Z,25.05
2017-07-15T17:18:52.236Z,25.14
2017-07-15T17:19:32.799Z,25.15
2017-07-15T17:20:13.322Z,25.1
2017-07-15T17:20:53.860Z,25.08
2017-07-15T17:21:34.377Z,25.09
2017-07-15T17:22:14.872Z,25.08
2017-07-15T17:22:55.377Z,25.14
2017-07-15T17:23:35.905Z,25.1
2017-07-15T17:24:16.435Z,25.2
2017-07-15T17:24:56.895Z,25.15
2017-07-15T17:25:37.410Z,25.15
2017-07-15T17:26:17.923Z,25.18
2017-07-15T17:26:59.076Z,25.09
2017-07-15T17:27:39.594Z,25.14
2017-07-15T17:28:20.087Z,25.17
2017-07-15T17:29:00.608Z,25.21
2017-07-15T17:29:41.072Z,25.08
2017-07-15T17:30:21.621Z,25.18
2017-07-15T17:31:02.171Z,25.17
2017-07-15T17:31:43.362Z,25.1
2017-07-15T17:32:23.896Z,25.05
2017-07-15T17:33:04.343Z,25.08
2017-07-15T17:33:45.010Z,25.02
2017-07-15T17:34:25.470Z,25.03
2017-07-15T17:35:06.525Z,25
2017-07-15T17:35:47.062Z,25.06
2017-07-15T17:36:27.694Z,25
2017-07-15T17:37:08.059Z,25
2017-07-15T17:37:48.728Z,24.99
2017-07-15T17:38:29.224Z,25
2017-07-15T17:39:10.632Z,25.03
2017-07-15T17:39:51.197Z,24.99
2017-07-15T17:40:31.624Z,24.98
2017-07-15T17:41:12.128Z,25
2017-07-15T17:41:52.610Z,24.91
2017-07-15T17:42:33.266Z,24.99
2017-07-15T17:43:14.436Z,24.9
2017-07-15T17:43:54.862Z,24.95
2017-07-15T17:44:35.383Z,24.93
2017-07-15T17:45:15.897Z,24.9
2017-07-15T17:45:56.409Z,24.9
2017-07-15T17:46:37.541Z,24.85
2017-07-15T17:47:18.704Z,24.77
2017-07-15T17:47:59.196Z,24.84
2017-07-15T17:48:40.314Z,24.85
2017-07-15T17:49:20.818Z,24.9
2017-07-15T17:50:01.291Z,24.9
2017-07-15T17:50:41.837Z,24.83
2017-07-15T17:51:22.333Z,24.87
2017-07-15T17:52:02.862Z,24.8
2017-07-15T17:52:43.386Z,24.73
2017-07-15T17:53:23.869Z,24.77
2017-07-15T17:54:04.466Z,24.81
2017-07-15T17:54:44.937Z,24.73
2017-07-15T17:55:25.436Z,24.77
2017-07-15T17:56:05.979Z,24.77
2017-07-15T17:56:46.467Z,24.71
2017-07-15T17:57:26.998Z,24.73
2017-07-15T17:58:07.498Z,24.71
2017-07-15T17:58:47.994Z,24.68
2017-07-15T17:59:28.501Z,24.69
2017-07-15T18:00:09.033Z,24.65
2017-07-15T18:00:49.581Z,24.62
2017-07-15T18:01:30.126Z,24.73
2017-07-15T18:02:10.566Z,24.65
2017-07-15T18:02:51.087Z,24.68
2017-07-15T18:03:31.594Z,24.62
2017-07-15T18:04:12.310Z,24.67
2017-07-15T18:04:52.866Z,24.71
2017-07-15T18:05:33.393Z,24.61
2017-07-15T18:06:13.894Z,24.67
2017-07-15T18:06:54.380Z,24.62
2017-07-15T18:07:34.907Z,24.65
2017-07-15T18:08:15.360Z,24.57
2017-07-15T18:08:55.896Z,24.52
2017-07-15T18:09:36.438Z,24.55
2017-07-15T18:10:16.912Z,24.61
2017-07-15T18:10:57.449Z,24.57
2017-07-15T18:11:37.900Z,24.57
2017-07-15T18:12:18.424Z,24.57
2017-07-15T18:12:58.898Z,24.64
2017-07-15T18:13:39.428Z,24.5
2017-07-15T18:14:19.938Z,24.49
2017-07-15T18:15:00.566Z,24.52
2017-07-15T18:15:41.099Z,24.55
2017-07-15T18:16:21.547Z,24.52
2017-07-15T18:17:02.034Z,24.61
2017-07-15T18:17:42.562Z,24.55
2017-07-15T18:18:23.076Z,24.53
2017-07-15T18:19:03.561Z,24.64
2017-07-15T18:19:44.040Z,24.65
2017-07-15T18:20:24.554Z,24.57
2017-07-15T18:21:05.097Z,24.45
2017-07-15T18:21:45.669Z,24.49
2017-07-15T18:22:26.145Z,24.49
2017-07-15T18:23:06.610Z,24.42
2017-07-15T18:23:47.136Z,24.32
2017-07-15T18:24:27.610Z,24.3
2017-07-15T18:25:08.097Z,24.34
2017-07-15T18:25:48.638Z,24.28
2017-07-15T18:26:29.127Z,24.31
2017-07-15T18:27:09.632Z,24.35
2017-07-15T18:27:50.160Z,24.31
2017-07-15T18:28:30.718Z,24.35
2017-07-15T18:29:11.304Z,24.39
2017-07-15T18:29:51.804Z,24.45
2017-07-15T18:30:32.324Z,24.37
2017-07-15T18:31:12.855Z,24.42
2017-07-15T18:31:53.447Z,24.35
2017-07-15T18:32:33.909Z,24.28
2017-07-15T18:33:14.392Z,24.24
2017-07-15T18:33:54.931Z,24.24
2017-07-15T18:34:35.388Z,24.27
2017-07-15T18:35:15.949Z,24.28
2017-07-15T18:35:56.401Z,24.24
2017-07-15T18:36:36.932Z,24.24
2017-07-15T18:37:17.467Z,24.3
2017-07-15T18:37:57.971Z,24.22
2017-07-15T18:38:38.540Z,24.22
2017-07-15T18:39:19.053Z,24.28
2017-07-15T18:39:59.578Z,24.3
2017-07-15T18:40:40.057Z,24.27
2017-07-15T18:41:20.569Z,24.28
2017-07-15T18:42:01.061Z,24.13
2017-07-15T18:42:41.605Z,24.24
2017-07-15T18:43:22.135Z,24.06
2017-07-15T18:44:02.724Z,24.15
2017-07-15T18:44:43.207Z,24.13
2017-07-15T18:45:23.741Z,24.09
2017-07-15T18:46:04.242Z,24.12
2017-07-15T18:46:44.777Z,24.1
2017-07-15T18:47:25.222Z,24.05
2017-07-15T18:48:05.751Z,24.03
2017-07-15T18:48:46.220Z,24.05
2017-07-15T18:49:26.739Z,24.06
2017-07-15T18:50:07.239Z,23.95
2017-07-15T18:50:47.748Z,23.95
2017-07-15T18:51:28.256Z,23.9
2017-07-15T18:52:08.775Z,23.8
2017-07-15T18:52:49.277Z,23.84
2017-07-15T18:53:29.862Z,23.8
2017-07-15T18:54:10.309Z,23.85
2017-07-15T18:54:50.822Z,23.83
2017-07-15T18:55:31.328Z,23.78
2017-07-15T18:56:11.830Z,23.78
2017-07-15T18:56:52.336Z,23.79
2017-07-15T18:57:32.869Z,23.78
2017-07-15T18:58:13.342Z,23.7
2017-07-15T18:58:53.869Z,23.69
2017-07-15T18:59:34.362Z,23.69
2017-07-15T19:00:14.891Z,23.55
2017-07-15T19:00:55.383Z,23.61
2017-07-15T19:01:35.866Z,23.6
2017-07-15T19:02:16.368Z,23.72
2017-07-15T19:02:56.937Z,23.72
2017-07-15T19:03:37.486Z,23.69
2017-07-15T19:04:17.940Z,23.68
2017-07-15T19:04:58.439Z,23.63
2017-07-15T19:05:38.938Z,23.6
2017-07-15T19:06:19.429Z,23.54
2017-07-15T19:07:00.050Z,23.63
2017-07-15T19:07:40.525Z,23.57
2017-07-15T19:08:20.993Z,23.54
2017-07-15T19:09:01.491Z,23.48
2017-07-15T19:09:42.056Z,23.6
2017-07-15T19:10:22.522Z,23.5
2017-07-15T19:11:03.053Z,23.43
2017-07-15T19:11:43.544Z,23.5
2017-07-15T19:12:24.085Z,23.48
2017-07-15T19:13:04.695Z,23.39
2017-07-15T19:13:45.223Z,23.39
2017-07-15T19:14:25.683Z,23.43
2017-07-15T19:15:06.178Z,23.46
2017-07-15T19:15:46.668Z,23.35
2017-07-15T19:16:27.162Z,23.36
2017-07-15T19:17:07.642Z,23.39
2017-07-15T19:17:48.156Z,23.35
2017-07-15T19:18:28.684Z,23.35
2017-07-15T19:19:09.197Z,23.33
2017-07-15T19:19:49.710Z,23.35
2017-07-15T19:20:30.267Z,23.33
2017-07-15T19:21:10.808Z,23.32
2017-07-15T19:21:51.323Z,23.28
2017-07-15T19:22:31.806Z,23.23
2017-07-15T19:23:12.360Z,23.25
2017-07-15T19:23:52.846Z,23.28
2017-07-15T19:24:33.344Z,23.28
2017-07-15T19:25:13.888Z,23.19
2017-07-15T19:25:54.369Z,23.2
2017-07-15T19:26:34.930Z,23.17
2017-07-15T19:27:15.478Z,23.22
2017-07-15T19:27:55.924Z,23.17
2017-07-15T19:28:36.421Z,23.25
2017-07-15T19:29:16.942Z,23.25
2017-07-15T19:29:57.432Z,23.1
2017-07-15T19:30:37.942Z,23.19
2017-07-15T19:31:18.424Z,23.13
2017-07-15T19:31:58.941Z,23.19
2017-07-15T19:32:39.451Z,23.12
2017-07-15T19:33:19.982Z,23.2
2017-07-15T19:34:00.490Z,23.1
2017-07-15T19:34:40.989Z,23.19
2017-07-15T19:35:21.536Z,23.07
2017-07-15T19:36:02.059Z,23.09
2017-07-15T19:36:42.552Z,23.13
2017-07-15T19:37:23.073Z,23.1
2017-07-15T19:38:03.583Z,23.05
2017-07-15T19:38:44.073Z,23.13
2017-07-15T19:39:24.592Z,23.05
2017-07-15T19:40:05.163Z,23
2017-07-15T19:40:45.704Z,22.97
2017-07-15T19:41:26.211Z,22.95
2017-07-15T19:42:06.663Z,22.98
2017-07-15T19:42:47.235Z,23.01
2017-07-15T19:43:27.801Z,23
2017-07-15T19:44:08.206Z,23
2017-07-15T19:44:48.774Z,23
2017-07-15T19:45:29.261Z,22.94
2017-07-15T19:46:09.768Z,22.95
2017-07-15T19:46:50.311Z,22.98
2017-07-15T19:47:30.855Z,23.01
2017-07-15T19:48:11.383Z,22.97
2017-07-15T19:48:51.841Z,22.92
2017-07-15T19:49:32.359Z,22.83
2017-07-15T19:50:12.942Z,23
2017-07-15T19:50:53.433Z,23.01
2017-07-15T19:51:33.958Z,23.01
2017-07-15T19:52:14.422Z,23
2017-07-15T19:52:54.931Z,22.88
2017-07-15T19:53:35.460Z,22.85
2017-07-15T19:54:15.960Z,22.92
2017-07-15T19:54:56.511Z,22.86
2017-07-15T19:55:37.020Z,22.77
2017-07-15T19:56:17.524Z,22.9
2017-07-15T19:56:58.030Z,22.92
2017-07-15T19:57:38.587Z,22.83
2017-07-15T19:58:19.059Z,22.8
2017-07-15T19:58:59.595Z,22.73
2017-07-15T19:59:40.046Z,22.75
2017-07-15T20:00:20.532Z,22.83
2017-07-15T20:01:01.089Z,22.86
2017-07-15T20:01:41.579Z,22.9
2017-07-15T20:02:22.086Z,22.79
2017-07-15T20:03:02.604Z,22.83
2017-07-15T20:03:43.244Z,22.82
2017-07-15T20:04:23.716Z,22.79
2017-07-15T20:05:04.275Z,22.75
2017-07-15T20:05:44.733Z,22.77
2017-07-15T20:06:25.332Z,22.73
2017-07-15T20:07:05.846Z,22.7
2017-07-15T20:07:46.387Z,22.68
2017-07-15T20:08:26.920Z,22.67
2017-07-15T20:09:07.512Z,22.79
2017-07-15T20:09:47.903Z,22.7
2017-07-15T20:10:28.444Z,22.73
2017-07-15T20:11:08.939Z,22.7
2017-07-15T20:11:49.600Z,22.76
2017-07-15T20:12:30.088Z,22.7
2017-07-15T20:13:10.625Z,22.62
2017-07-15T20:13:51.118Z,22.73
2017-07-15T20:14:31.620Z,22.65
2017-07-15T20:15:12.130Z,22.67
2017-07-15T20:15:52.675Z,22.79
2017-07-15T20:16:33.188Z,22.72
2017-07-15T20:17:13.679Z,22.72
2017-07-15T20:17:54.217Z,22.68
2017-07-15T20:18:34.734Z,22.7
2017-07-15T20:19:15.214Z,22.72
2017-07-15T20:19:55.697Z,22.7
2017-07-15T20:20:36.214Z,22.79
2017-07-15T20:21:16.729Z,22.77
2017-07-15T20:21:57.196Z,22.8
2017-07-15T20:22:37.731Z,22.8
2017-07-15T20:23:18.220Z,22.76
2017-07-15T20:23:58.767Z,22.79
2017-07-15T20:24:39.231Z,22.73
2017-07-15T20:25:19.737Z,22.72
2017-07-15T20:26:00.264Z,22.72
2017-07-15T20:26:40.934Z,22.72
2017-07-15T20:27:21.485Z,22.7
2017-07-15T20:28:01.957Z,22.76
2017-07-15T20:28:42.437Z,22.75
2017-07-15T20:29:22.964Z,22.76
2017-07-15T20:30:03.454Z,22.73
2017-07-15T20:30:43.977Z,22.65
2017-07-15T20:31:24.619Z,22.58
2017-07-15T20:32:05.106Z,22.64
2017-07-15T20:32:45.637Z,22.58
2017-07-15T20:33:26.118Z,22.6
2017-07-15T20:34:06.595Z,22.68
2017-07-15T20:34:47.119Z,22.65
2017-07-15T20:35:27.813Z,22.72
2017-07-15T20:36:08.362Z,22.62
2017-07-15T20:36:48.886Z,22.6
2017-07-15T20:37:29.354Z,22.7
2017-07-15T20:38:09.880Z,22.61
2017-07-15T20:38:50.419Z,22.62
2017-07-15T20:39:30.872Z,22.58
2017-07-15T20:40:11.338Z,22.64
2017-07-15T20:40:52.102Z,22.55
2017-07-15T20:41:32.599Z,22.67
2017-07-15T20:42:13.114Z,22.54
2017-07-15T20:42:53.658Z,22.55
2017-07-15T20:43:34.152Z,22.55
2017-07-15T20:44:14.636Z,22.6
2017-07-15T20:44:55.123Z,22.4
2017-07-15T20:45:35.646Z,22.54
2017-07-15T20:46:16.204Z,22.43
2017-07-15T20:46:56.700Z,22.49
2017-07-15T20:47:37.180Z,22.42
2017-07-15T20:48:17.658Z,22.4
2017-07-15T20:48:58.179Z,22.49
2017-07-15T20:49:38.674Z,22.33
2017-07-15T20:50:19.198Z,22.36
2017-07-15T20:50:59.661Z,22.4
2017-07-15T20:51:40.205Z,22.45
2017-07-15T20:52:20.716Z,22.3
2017-07-15T20:53:01.176Z,22.28
2017-07-15T20:53:41.687Z,22.28
2017-07-15T20:54:22.225Z,22.28
2017-07-15T20:55:02.680Z,22.42
2017-07-15T20:55:43.216Z,22.36
2017-07-15T20:56:23.728Z,22.28
2017-07-15T20:57:04.214Z,22.24
2017-07-15T20:57:44.739Z,22.35
2017-07-15T20:58:25.196Z,22.18
2017-07-15T20:59:05.749Z,22.17
2017-07-15T20:59:46.315Z,22.17
2017-07-15T21:00:26.787Z,22.15
2017-07-15T21:01:07.298Z,22.17
2017-07-15T21:01:47.766Z,22.18
2017-07-15T21:02:28.288Z,22.2
2017-07-15T21:03:08.801Z,22.18
2017-07-15T21:03:49.304Z,22.17
2017-07-15T21:04:29.846Z,22.33
2017-07-15T21:05:10.333Z,22.22
2017-07-15T21:05:51.005Z,22.18
2017-07-15T21:06:31.485Z,22.24
2017-07-15T21:07:11.960Z,22.17
2017-07-15T21:07:52.495Z,22.12
2017-07-15T21:08:32.990Z,22.14
2017-07-15T21:09:13.498Z,22.2
2017-07-15T21:09:53.945Z,22.15
2017-07-15T21:10:34.600Z,22.2
2017-07-15T21:11:14.988Z,22.14
2017-07-15T21:11:55.541Z,22.14
2017-07-15T21:12:36.074Z,22.15
2017-07-15T21:13:16.551Z,22.12
2017-07-15T21:13:57.094Z,22.06
2017-07-15T21:14:37.532Z,22.05
2017-07-15T21:15:18.058Z,22.05
2017-07-15T21:15:58.560Z,22.09
2017-07-15T21:16:39.096Z,22.06
2017-07-15T21:17:19.632Z,22.05
2017-07-15T21:18:00.084Z,22.05
2017-07-15T21:18:40.592Z,22.06
2017-07-15T21:19:21.232Z,22.05
2017-07-15T21:20:01.776Z,22.07
2017-07-15T21:20:42.373Z,21.98
2017-07-15T21:21:22.898Z,22.06
2017-07-15T21:22:03.417Z,22.02
2017-07-15T21:22:43.865Z,22.05
2017-07-15T21:23:24.387Z,22.06
2017-07-15T21:24:04.888Z,21.98
2017-07-15T21:24:45.380Z,22
2017-07-15T21:25:25.887Z,22.06
2017-07-15T21:26:06.392Z,22.02
2017-07-15T21:26:46.903Z,22.03
2017-07-15T21:27:27.426Z,22.02
2017-07-15T21:28:07.923Z,22.02
2017-07-15T21:28:48.586Z,21.98
2017-07-15T21:29:28.972Z,21.98
2017-07-15T21:30:09.542Z,22.05
2017-07-15T21:30:50.016Z,21.94
2017-07-15T21:31:30.528Z,22.03
2017-07-15T21:32:11.015Z,21.99
2017-07-15T21:32:51.532Z,21.98
2017-07-15T21:33:32.049Z,21.99
2017-07-15T21:34:12.541Z,21.86
2017-07-15T21:34:53.083Z,21.92
2017-07-15T21:35:33.554Z,21.91
2017-07-15T21:36:14.077Z,21.96
2017-07-15T21:36:54.626Z,21.91
2017-07-15T21:37:35.138Z,22.03
2017-07-15T21:38:15.648Z,21.99
2017-07-15T21:38:56.164Z,21.94
2017-07-15T21:39:36.654Z,22
2017-07-15T21:40:17.175Z,21.92
2017-07-15T21:40:57.729Z,21.94
2017-07-15T21:41:38.253Z,21.86
2017-07-15T21:42:18.739Z,21.86
2017-07-15T21:42:59.221Z,21.75
2017-07-15T21:43:39.740Z,21.82
2017-07-15T21:44:20.267Z,21.96
2017-07-15T21:45:00.794Z,21.98
2017-07-15T21:45:41.281Z,21.96
2017-07-15T21:46:21.811Z,21.88
2017-07-15T21:47:02.303Z,21.96
2017-07-15T21:47:42.858Z,21.96
2017-07-15T21:48:23.401Z,21.96
2017-07-15T21:49:03.870Z,21.98
2017-07-15T21:49:44.378Z,21.98
2017-07-15T21:50:24.890Z,22.03
2017-07-15T21:51:05.365Z,21.9
2017-07-15T21:51:45.818Z,21.9
2017-07-15T21:52:26.314Z,21.98
2017-07-15T21:53:06.939Z,21.91
2017-07-15T21:53:47.397Z,21.8
2017-07-15T21:54:27.911Z,21.84
2017-07-15T21:55:08.349Z,21.88
2017-07-15T21:55:48.871Z,21.79
2017-07-15T21:56:29.416Z,21.77
2017-07-15T21:57:09.876Z,21.82
2017-07-15T21:57:51.442Z,21.88
2017-07-15T21:58:31.880Z,21.75
2017-07-15T21:59:12.355Z,21.77
2017-07-15T21:59:52.893Z,21.82
2017-07-15T22:00:33.420Z,21.72
2017-07-15T22:01:13.890Z,21.72
2017-07-15T22:01:54.418Z,21.72
2017-07-15T22:02:34.983Z,21.72
2017-07-15T22:03:15.523Z,21.82
2017-07-15T22:03:55.995Z,21.86
2017-07-15T22:04:36.567Z,21.79
2017-07-15T22:05:17.068Z,21.88
2017-07-15T22:05:57.552Z,21.84
2017-07-15T22:06:38.019Z,21.72
2017-07-15T22:07:18.599Z,21.74
2017-07-15T22:07:59.181Z,21.75
2017-07-15T22:08:39.671Z,21.69
2017-07-15T22:09:20.219Z,21.75
2017-07-15T22:10:00.748Z,21.69
2017-07-15T22:10:41.300Z,21.69
2017-07-15T22:11:21.828Z,21.67
2017-07-15T22:12:02.316Z,21.82
2017-07-15T22:12:42.775Z,21.75
2017-07-15T22:13:23.298Z,21.74
2017-07-15T22:14:03.795Z,21.77
2017-07-15T22:14:44.325Z,21.84
2017-07-15T22:15:24.816Z,21.69
2017-07-15T22:16:05.300Z,21.75
2017-07-15T22:16:45.992Z,21.75
2017-07-15T22:17:26.414Z,21.77
2017-07-15T22:18:06.965Z,21.79
2017-07-15T22:18:47.507Z,21.75
2017-07-15T22:19:27.957Z,21.77
2017-07-15T22:20:08.518Z,21.71
2017-07-15T22:20:49.102Z,21.68
2017-07-15T22:21:29.593Z,21.65
2017-07-15T22:22:10.126Z,21.61
2017-07-15T22:22:50.619Z,21.67
2017-07-15T22:23:31.140Z,21.61
2017-07-15T22:24:13.275Z,21.61
2017-07-15T22:26:22.118Z,21.58
2017-07-15T22:27:02.807Z,21.5
2017-07-15T22:27:43.383Z,21.59
2017-07-15T22:28:23.896Z,21.58
2017-07-15T22:29:04.396Z,21.56
2017-07-15T22:29:45.200Z,21.58
2017-07-15T22:30:25.498Z,21.44
2017-07-15T22:31:06.112Z,21.47
2017-07-15T22:31:46.597Z,21.52
2017-07-15T22:32:27.122Z,21.49
2017-07-15T22:33:07.703Z,21.47
2017-07-15T22:33:48.208Z,21.49
2017-07-15T22:34:28.719Z,21.46
2017-07-15T22:35:09.219Z,21.49
2017-07-15T22:35:49.758Z,21.52
2017-07-15T22:36:30.304Z,21.52
2017-07-15T22:37:10.800Z,21.5
2017-07-15T22:37:51.372Z,21.46
2017-07-15T22:38:31.984Z,21.44
2017-07-15T22:39:14.453Z,21.5
2017-07-15T22:39:54.982Z,21.32
2017-07-15T22:40:35.532Z,21.37
2017-07-15T22:41:16.094Z,21.37
2017-07-15T22:41:56.592Z,21.37
2017-07-15T22:42:37.124Z,21.27
2017-07-15T22:43:17.724Z,21.29
2017-07-15T22:43:58.144Z,21.34
2017-07-15T22:44:38.644Z,21.31
2017-07-15T22:45:19.247Z,21.29
2017-07-15T22:45:59.746Z,21.29
2017-07-15T22:46:40.298Z,21.22
2017-07-15T22:47:20.805Z,21.16
2017-07-15T22:48:01.314Z,21.13
2017-07-15T22:48:41.907Z,21.29
2017-07-15T22:49:22.416Z,21.29
2017-07-15T22:55:42.263Z,21.21
2017-07-15T22:56:22.810Z,21.31
2017-07-15T22:57:03.430Z,21.28
2017-07-15T22:57:43.963Z,21.24
2017-07-15T22:58:24.460Z,21.27
2017-07-15T22:59:04.965Z,21.28
2017-07-15T22:59:45.526Z,21.27
2017-07-15T23:00:25.986Z,21.28
2017-07-15T23:01:06.509Z,21.32
2017-07-15T23:01:47.093Z,21.32
2017-07-15T23:02:27.697Z,21.28
2017-07-15T23:03:08.210Z,21.27
2017-07-15T23:03:48.670Z,21.24
2017-07-15T23:04:29.218Z,21.25
2017-07-15T23:05:09.806Z,21.29
2017-07-15T23:05:50.335Z,21.22
2017-07-15T23:06:30.925Z,21.31
2017-07-15T23:07:13.106Z,21.28
2017-07-15T23:07:53.612Z,21.25
2017-07-15T23:08:34.189Z,21.22
2017-07-15T23:09:14.699Z,21.25
2017-07-15T23:09:55.235Z,21.19
2017-07-15T23:10:35.811Z,21.14
2017-07-15T23:11:16.303Z,21.14
2017-07-15T23:11:56.854Z,21.19
2017-07-15T23:12:37.471Z,21.14
2017-07-15T23:13:18.035Z,21.21
2017-07-15T23:13:58.538Z,21.14
2017-07-15T23:14:39.077Z,21.17
2017-07-15T23:15:19.627Z,21.16
2017-07-15T23:16:00.160Z,21.09
2017-07-15T23:16:43.987Z,21.1
2017-07-15T23:17:24.449Z,21.09
2017-07-15T23:18:04.990Z,21.09
2017-07-15T23:18:45.500Z,21.04
2017-07-15T23:19:26.061Z,21.14
2017-07-15T23:20:06.538Z,21.22
2017-07-15T23:20:48.617Z,21.13
2017-07-15T23:21:29.177Z,21.16
2017-07-15T23:22:09.754Z,21.25
2017-07-15T23:22:50.261Z,21.12
2017-07-15T23:23:30.745Z,21.13
2017-07-15T23:24:11.326Z,21.17
2017-07-15T23:24:51.863Z,21.19
2017-07-15T23:25:32.325Z,21.19
2017-07-15T23:26:12.862Z,21.12
2017-07-15T23:26:53.415Z,21.12
2017-07-15T23:27:33.896Z,21.22
2017-07-15T23:28:14.404Z,21.16
2017-07-15T23:28:54.942Z,21.13
2017-07-15T23:29:35.445Z,21.16
2017-07-15T23:30:15.973Z,21.13
2017-07-15T23:30:56.435Z,21.14
2017-07-15T23:31:36.977Z,21.17
2017-07-15T23:32:17.516Z,21.14
2017-07-15T23:32:58.106Z,21.17
2017-07-15T23:33:38.639Z,21.14
2017-07-15T23:34:19.117Z,21.14
2017-07-15T23:34:59.705Z,21.14
2017-07-15T23:35:40.107Z,21.14
2017-07-15T23:36:20.646Z,21.17
2017-07-15T23:37:01.145Z,21.19
2017-07-15T23:37:41.638Z,21.21
2017-07-15T23:38:22.183Z,21.14
2017-07-15T23:39:02.918Z,21.13
2017-07-15T23:39:43.248Z,21.25
2017-07-15T23:40:23.771Z,21.28
2017-07-15T23:41:04.374Z,21.25
2017-07-15T23:41:44.871Z,21.24
2017-07-15T23:42:25.403Z,21.17
2017-07-15T23:43:06.070Z,21.25
2017-07-15T23:43:46.610Z,21.22
2017-07-15T23:44:27.167Z,21.21
2017-07-15T23:45:07.662Z,21.14
2017-07-15T23:45:48.244Z,21.16
2017-07-15T23:46:28.795Z,21.12
2017-07-15T23:47:09.311Z,21.16
2017-07-15T23:47:49.864Z,21.04
2017-07-15T23:48:30.349Z,21.1
2017-07-15T23:49:10.891Z,21.06
2017-07-15T23:49:51.438Z,21.13
2017-07-15T23:50:32.002Z,21.12
2017-07-15T23:51:12.530Z,21.09
2017-07-15T23:51:53.109Z,21.14
2017-07-15T23:52:33.599Z,21.1
2017-07-15T23:53:15.775Z,21.14